Main page
METAR-TAF:

METAR-TAF

Airports :

Bauru, São Paulo, Brazil

Bauru Airport

latitude: 22-19S, longitude: 049-04W, elevation: 590 m

Current weather observation

The report was made 23 hours and 46 minutes ago, at 21:00 UTC
Wind 7 kt from the East
Temperature 22°C
Humidity 73%
Pressure 1021 hPa
Visibility 10 km or more
no clouds below 1500 m and no cumulonimbus

METAR: SBBU 222100Z 08007KT CAVOK 22/17 Q1021

Time: 17:46 (20:46 UTC)

Forecast

The report was made 5 hours and 16 minutes ago, at 15:30 UTC
Forecast valid from 23 at 18 UTC to 24 at 06 UTC
Wind 8 kt from the Southeast
Visibility 10 km or more
no clouds below 1500 m and no cumulonimbus
Probability 30%
from 23 at 18 UTC to 23 at 21 UTC
Wind 8 kt from the East/Northeast

TAF: SBBU 231530Z 2318/2406 13008KT CAVOK TX27/2318Z TN21/2406Z PROB30 2318/2321 06008KT RMK PDN

Weather observations and forecasts of more than 4000 airports (METAR and TAF reports).

The available stations are represented by yellow and red dots on the map.

Hover mouse over dot to see the name of the station.

Then click to see weather observations and forecasts.

To change the map : click on the green buttons with a black cross to zoom in, on the green button with a dash to zoom out, or on the green arrows for adjacent maps.


METAR-TAF: